Time;durP1;ratioP1;P1;durP2;ratioP2;P2;SDS_P1;SDS_P2;PMS_P1;PMS_P2;Temp;Humidity;BMP_temperature;BMP_pressure;BME280_temperature;BME280_humidity;BME280_pressure;Samples;Min_cycle;Max_cycle;Signal;HPM_P1;HPM_P2
2023/09/20 00:02:12;;;;;;;3.05;1.55;;;;;;;15.27;65.05;96666.31;6281543;22;20031;-77
2023/09/20 00:04:41;;;;;;;3.72;1.70;;;;;;;15.22;65.17;96670.38;6278044;22;20099;-76
2023/09/20 00:07:11;;;;;;;5.00;1.40;;;;;;;15.20;65.41;96669.78;6277145;22;20536;-76
2023/09/20 00:09:39;;;;;;;2.88;1.35;;;;;;;15.15;65.61;96666.97;6277891;22;20016;-76
2023/09/20 00:12:07;;;;;;;2.20;1.40;;;;;;;15.14;65.64;96657.47;6277622;22;20488;-77
2023/09/20 00:14:35;;;;;;;4.55;1.70;;;;;;;15.12;65.66;96656.88;6287328;22;20023;-77
2023/09/20 00:17:03;;;;;;;2.08;1.50;;;;;;;15.11;65.59;96655.28;6297086;22;20089;-78
2023/09/20 00:19:31;;;;;;;2.75;1.30;;;;;;;15.09;65.52;96652.03;6296482;22;20071;-77
2023/09/20 00:21:58;;;;;;;2.17;1.42;;;;;;;15.05;65.45;96661.34;6296188;22;20035;-76
2023/09/20 00:24:27;;;;;;;1.67;1.13;;;;;;;15.03;65.91;96666.00;6278395;22;20392;-76
2023/09/20 00:26:55;;;;;;;2.33;1.40;;;;;;;15.01;66.02;96663.59;6276047;22;20473;-76
2023/09/20 00:29:24;;;;;;;2.78;1.10;;;;;;;14.99;65.99;96662.19;6276724;22;20392;-77
2023/09/20 00:31:52;;;;;;;3.13;1.60;;;;;;;14.97;66.02;96658.94;6276374;22;20031;-77
2023/09/20 00:34:20;;;;;;;1.67;1.55;;;;;;;14.96;65.99;96652.09;6275509;22;20639;-77
2023/09/20 00:36:48;;;;;;;3.28;1.80;;;;;;;14.95;66.09;96651.28;6276361;22;20031;-76
2023/09/20 00:39:17;;;;;;;3.38;1.38;;;;;;;14.95;66.23;96650.47;6276629;22;20020;-77
2023/09/20 00:41:48;;;;;;;3.97;1.45;;;;;;;14.90;66.40;96650.31;6275746;22;20019;-77
2023/09/20 00:44:15;;;;;;;1.40;1.20;;;;;;;14.84;66.42;96650.09;6275928;22;20373;-76
2023/09/20 00:46:44;;;;;;;2.47;1.20;;;;;;;14.83;66.56;96652.94;6276176;22;20028;-76
2023/09/20 00:49:12;;;;;;;2.53;1.42;;;;;;;14.80;66.70;96648.94;6275820;22;20460;-76
2023/09/20 00:51:40;;;;;;;2.58;1.30;;;;;;;14.78;66.58;96642.25;6276166;22;20081;-76
2023/09/20 00:54:08;;;;;;;3.15;1.55;;;;;;;14.76;67.01;96639.84;6275569;22;20074;-76
2023/09/20 00:56:36;;;;;;;3.55;1.40;;;;;;;14.83;67.28;96643.25;6276027;22;20027;-76
2023/09/20 00:59:06;;;;;;;1.77;1.27;;;;;;;14.87;66.90;96641.03;6276148;22;20129;-76
2023/09/20 01:01:34;;;;;;;4.25;1.65;;;;;;;14.89;66.46;96631.13;6276075;22;20349;-76
2023/09/20 01:04:02;;;;;;;3.33;1.35;;;;;;;14.88;66.61;96631.31;6275740;22;20443;-76
2023/09/20 01:06:32;;;;;;;2.75;1.52;;;;;;;14.87;66.69;96637.56;6276242;22;20023;-77
2023/09/20 01:08:59;;;;;;;1.50;1.35;;;;;;;14.84;66.57;96626.47;6275282;22;20023;-76
2023/09/20 01:11:27;;;;;;;2.58;1.60;;;;;;;14.84;66.65;96634.34;6275800;22;20019;-77
2023/09/20 01:13:55;;;;;;;3.75;1.52;;;;;;;14.85;66.65;96629.91;6275800;22;20057;-77
2023/09/20 01:16:24;;;;;;;4.07;1.42;;;;;;;14.84;66.78;96630.91;6275966;22;20024;-76
2023/09/20 01:18:51;;;;;;;2.10;1.30;;;;;;;14.83;66.64;96616.97;6275316;22;20085;-76
2023/09/20 01:21:19;;;;;;;3.25;1.65;;;;;;;14.84;66.59;96623.03;6275731;22;20050;-76
2023/09/20 01:23:49;;;;;;;2.95;1.65;;;;;;;14.86;66.55;96615.75;6275358;22;20026;-76
2023/09/20 01:26:18;;;;;;;2.58;1.40;;;;;;;14.86;66.43;96614.97;6275281;22;20023;-76
2023/09/20 01:28:45;;;;;;;2.40;1.15;;;;;;;14.83;66.43;96609.09;6275524;22;20032;-76
2023/09/20 01:31:13;;;;;;;2.85;1.30;;;;;;;14.83;66.81;96621.44;6275656;22;20024;-76
2023/09/20 01:33:41;;;;;;;2.25;1.35;;;;;;;14.79;66.63;96610.53;6275130;22;20029;-76
2023/09/20 01:36:08;;;;;;;1.90;1.38;;;;;;;14.74;66.58;96610.34;6275640;22;20054;-77
2023/09/20 01:38:37;;;;;;;3.53;1.30;;;;;;;14.70;66.87;96610.97;6275484;22;20023;-76
2023/09/20 01:41:06;;;;;;;1.30;1.20;;;;;;;14.66;67.14;96617.66;6275696;22;20094;-76
2023/09/20 01:43:36;;;;;;;3.63;1.25;;;;;;;14.62;67.09;96622.50;6275031;22;20465;-76
2023/09/20 01:46:04;;;;;;;2.08;1.40;;;;;;;14.60;67.23;96616.66;6275662;22;20019;-76
2023/09/20 01:48:33;;;;;;;2.55;1.33;;;;;;;14.61;67.30;96623.53;6275436;22;20392;-77
2023/09/20 01:51:02;;;;;;;1.88;1.13;;;;;;;14.60;67.15;96616.66;6275001;22;20474;-76
2023/09/20 01:53:30;;;;;;;1.55;1.10;;;;;;;14.60;67.35;96616.66;6278480;22;20058;-76
2023/09/20 01:55:58;;;;;;;2.08;1.25;;;;;;;14.59;67.32;96615.06;6280499;22;20145;-77
2023/09/20 01:58:28;;;;;;;5.40;1.45;;;;;;;14.56;67.40;96610.19;6280128;22;20023;-76
2023/09/20 02:00:56;;;;;;;1.45;1.15;;;;;;;14.54;67.41;96609.56;6275734;22;20023;-76
2023/09/20 02:03:27;;;;;;;2.55;1.50;;;;;;;14.53;67.48;96610.59;6275646;22;20357;-78
2023/09/20 02:05:55;;;;;;;2.22;1.40;;;;;;;14.51;67.55;96602.91;6275852;22;20020;-76
2023/09/20 02:08:23;;;;;;;2.58;1.50;;;;;;;14.48;67.60;96602.53;6274657;22;20099;-78
2023/09/20 02:10:51;;;;;;;4.18;1.23;;;;;;;14.48;67.75;96607.78;6275742;22;20051;-78
2023/09/20 02:13:19;;;;;;;2.20;1.40;;;;;;;14.48;67.71;96607.78;6275217;22;20396;-78
2023/09/20 02:15:48;;;;;;;3.30;1.33;;;;;;;14.48;67.73;96607.78;6292502;22;20034;-79
2023/09/20 02:18:16;;;;;;;2.42;1.38;;;;;;;14.48;67.88;96607.78;6299811;22;20024;-79
2023/09/20 02:20:44;;;;;;;2.45;1.50;;;;;;;14.46;67.86;96604.56;6283755;22;20024;-78
2023/09/20 02:23:12;;;;;;;2.30;1.40;;;;;;;14.43;67.83;96603.16;6276695;22;20465;-78
2023/09/20 02:25:41;;;;;;;1.98;1.42;;;;;;;14.41;67.96;96608.59;6276741;22;20099;-79
2023/09/20 02:28:10;;;;;;;2.88;1.50;;;;;;;14.40;67.79;96604.34;6276552;22;20023;-78
2023/09/20 02:30:38;;;;;;;3.42;1.77;;;;;;;14.33;68.09;96600.94;6276631;22;20073;-78
2023/09/20 02:33:10;;;;;;;2.17;1.50;;;;;;;14.26;68.24;96604.63;6275850;22;20022;-78
2023/09/20 02:35:39;;;;;;;9.68;1.35;;;;;;;14.18;68.33;96603.78;6277129;22;20023;-78
2023/09/20 02:38:09;;;;;;;1.92;1.40;;;;;;;14.14;68.42;96601.78;6275877;22;20403;-78
2023/09/20 02:40:38;;;;;;;5.22;1.67;;;;;;;14.10;68.52;96611.06;6276114;22;20095;-78
2023/09/20 02:43:08;;;;;;;3.03;1.60;;;;;;;14.06;68.83;96605.44;6276073;22;20019;-78
2023/09/20 02:45:37;;;;;;;1.98;1.25;;;;;;;14.05;68.76;96603.00;6276099;22;20026;-78
2023/09/20 02:48:06;;;;;;;3.22;1.52;;;;;;;14.09;68.80;96604.22;6275968;22;20480;-78
2023/09/20 02:50:37;;;;;;;2.75;1.20;;;;;;;14.07;68.42;96603.63;6285822;22;20019;-78
2023/09/20 02:53:06;;;;;;;3.08;1.38;;;;;;;14.04;68.66;96596.97;6275535;22;20465;-78
2023/09/20 02:55:35;;;;;;;3.55;1.27;;;;;;;14.01;68.70;96597.34;6275904;22;20020;-78
2023/09/20 02:58:04;;;;;;;1.88;1.45;;;;;;;13.95;68.81;96599.00;6275700;22;20016;-78
2023/09/20 03:00:32;;;;;;;2.20;1.35;;;;;;;13.93;68.72;96601.00;6275771;22;20023;-78
2023/09/20 03:03:02;;;;;;;9.15;1.70;;;;;;;13.90;69.14;96601.41;6275930;22;20030;-78
2023/09/20 03:05:33;;;;;;;4.75;2.08;;;;;;;13.87;69.10;96604.44;6277678;22;20019;-78
2023/09/20 03:08:04;;;;;;;1.58;1.48;;;;;;;13.89;69.08;96599.00;6277675;22;20073;-78
2023/09/20 03:10:38;;;;;;;2.33;1.42;;;;;;;13.93;69.28;96595.75;6278151;22;20356;-78
2023/09/20 03:13:10;;;;;;;2.60;1.77;;;;;;;13.96;69.17;96584.06;6277490;22;20015;-78
2023/09/20 03:15:43;;;;;;;2.53;1.38;;;;;;;14.04;69.97;96590.88;6278619;22;20023;-78
2023/09/20 03:18:14;;;;;;;2.30;1.15;;;;;;;14.14;68.93;96586.03;6278335;22;20023;-79
2023/09/20 03:20:43;;;;;;;3.15;1.65;;;;;;;14.17;68.65;96585.66;6277888;22;20357;-78
2023/09/20 03:23:14;;;;;;;2.88;1.50;;;;;;;14.20;69.00;96577.38;6278090;22;20396;-78
2023/09/20 03:25:42;;;;;;;3.25;1.45;;;;;;;14.22;68.52;96573.53;6278915;22;20022;-77
2023/09/20 03:28:10;;;;;;;2.53;1.65;;;;;;;14.24;68.11;96572.53;6277888;22;20023;-78
2023/09/20 03:30:39;;;;;;;2.17;1.30;;;;;;;14.22;68.49;96573.53;6281391;22;20322;-77
2023/09/20 03:33:10;;;;;;;1.73;1.20;;;;;;;14.22;68.09;96572.72;6280362;22;20015;-77
2023/09/20 03:35:39;;;;;;;4.60;1.70;;;;;;;14.21;68.14;96571.09;6280548;22;20024;-77
2023/09/20 03:38:08;;;;;;;3.17;1.42;;;;;;;14.17;68.11;96568.09;6277434;22;20241;-78
2023/09/20 03:40:41;;;;;;;2.55;1.70;;;;;;;14.12;68.37;96561.84;6277591;22;20081;-78
2023/09/20 03:43:09;;;;;;;1.92;1.42;;;;;;;14.08;68.35;96569.31;6277030;22;20019;-78
2023/09/20 03:45:37;;;;;;;3.20;1.20;;;;;;;14.02;68.48;96563.06;6277525;22;20043;-78
2023/09/20 03:48:05;;;;;;;2.13;1.45;;;;;;;14.00;68.67;96564.28;6277095;22;20024;-78
2023/09/20 03:50:33;;;;;;;3.28;1.38;;;;;;;13.97;68.57;96562.88;6276848;22;20361;-78
2023/09/20 03:53:02;;;;;;;6.75;1.77;;;;;;;13.93;68.63;96566.91;6277455;22;20023;-78
2023/09/20 03:55:33;;;;;;;1.85;1.27;;;;;;;13.89;68.61;96551.78;6277631;22;20024;-77
2023/09/20 03:58:03;;;;;;;2.72;1.50;;;;;;;13.84;68.89;96555.03;6276942;22;20015;-78
2023/09/20 04:00:32;;;;;;;4.07;1.45;;;;;;;13.80;68.88;96552.00;6277600;22;20388;-78
2023/09/20 04:03:01;;;;;;;2.53;1.65;;;;;;;13.78;68.91;96550.59;6277406;22;20111;-78
2023/09/20 04:05:31;;;;;;;2.15;1.77;;;;;;;13.73;69.15;96550.38;6277015;22;20016;-77
2023/09/20 04:08:13;;;;;;;2.03;1.58;;;;;;;13.68;69.27;96552.81;6276779;22;20039;-78
2023/09/20 04:10:42;;;;;;;2.03;1.45;;;;;;;13.62;69.37;96556.22;6277210;22;20353;-78
2023/09/20 04:13:11;;;;;;;6.63;1.63;;;;;;;13.56;69.64;96552.63;6276846;22;20073;-78
2023/09/20 04:15:42;;;;;;;3.67;1.70;;;;;;;13.52;69.70;96546.97;6276195;22;20024;-78
2023/09/20 04:18:10;;;;;;;1.70;1.42;;;;;;;13.49;70.02;96555.25;6276147;22;20018;-77
2023/09/20 04:20:39;;;;;;;9.20;2.28;;;;;;;13.51;70.10;96548.00;6276559;22;20019;-77
2023/09/20 04:23:09;;;;;;;3.28;1.63;;;;;;;13.54;69.92;96542.34;6276814;22;20035;-78
2023/09/20 04:25:37;;;;;;;4.32;1.67;;;;;;;13.55;69.91;96549.16;6276136;22;20047;-77
2023/09/20 04:28:06;;;;;;;3.17;1.80;;;;;;;13.56;70.01;96542.13;6276491;22;20114;-77
2023/09/20 04:30:38;;;;;;;2.80;1.60;;;;;;;13.57;70.07;96544.53;6278186;22;20020;-78
2023/09/20 04:33:10;;;;;;;2.05;1.60;;;;;;;13.59;69.72;96542.53;6277101;22;20016;-77
2023/09/20 04:35:38;;;;;;;3.47;1.60;;;;;;;13.60;69.83;96546.78;6277125;22;20020;-78
2023/09/20 04:38:06;;;;;;;5.13;1.58;;;;;;;13.68;69.96;96540.50;6277072;22;20046;-77
2023/09/20 04:40:34;;;;;;;3.85;1.73;;;;;;;13.70;69.47;96535.88;6276719;22;20022;-78
2023/09/20 04:43:02;;;;;;;4.20;2.22;;;;;;;13.67;69.52;96538.09;6276299;22;20469;-78
2023/09/20 04:45:31;;;;;;;2.78;1.67;;;;;;;13.61;69.69;96544.94;6276163;22;20548;-77
2023/09/20 04:48:00;;;;;;;3.53;1.52;;;;;;;13.57;69.92;96539.28;6276642;22;20015;-78
2023/09/20 04:50:28;;;;;;;4.68;1.83;;;;;;;13.55;69.86;96541.31;6276594;22;20382;-77
2023/09/20 04:52:56;;;;;;;5.13;1.60;;;;;;;13.53;69.91;96532.03;6276510;22;20019;-78
2023/09/20 04:55:25;;;;;;;4.47;1.85;;;;;;;13.56;70.27;96537.69;6276240;22;20019;-77
2023/09/20 04:57:53;;;;;;;4.25;1.90;;;;;;;13.58;70.05;96550.59;6276832;22;20024;-77
2023/09/20 05:00:26;;;;;;;3.15;1.40;;;;;;;13.67;70.62;96543.34;6287921;22;20020;-78
2023/09/20 05:02:54;;;;;;;1.90;1.30;;;;;;;13.75;70.27;96541.31;6286736;22;20020;-77
2023/09/20 05:05:25;;;;;;;5.40;1.60;;;;;;;13.80;69.87;96538.09;6278841;22;20512;-78
2023/09/20 05:07:54;;;;;;;2.67;1.52;;;;;;;13.87;70.29;96544.13;6279429;22;20024;-77
2023/09/20 05:10:22;;;;;;;5.75;2.17;;;;;;;13.91;69.75;96540.09;6278171;22;20019;-77
2023/09/20 05:12:50;;;;;;;3.85;1.73;;;;;;;13.96;69.63;96542.09;6292860;22;20027;-78
2023/09/20 05:15:18;;;;;;;2.85;1.65;;;;;;;13.97;69.26;96549.78;6301967;22;20020;-79
2023/09/20 05:17:49;;;;;;;2.47;1.90;;;;;;;13.95;69.44;96550.97;6291179;22;20015;-78
2023/09/20 05:20:17;;;;;;;4.65;2.42;;;;;;;13.92;69.25;96546.13;6278917;22;20047;-77
2023/09/20 05:22:46;;;;;;;4.32;2.13;;;;;;;13.90;69.45;96550.78;6276408;22;20020;-77
2023/09/20 05:25:15;;;;;;;3.80;2.47;;;;;;;13.89;69.38;96547.34;6276341;22;20133;-77
2023/09/20 05:27:44;;;;;;;2.70;2.17;;;;;;;13.89;69.33;96552.59;6276170;22;20390;-76
2023/09/20 05:30:13;;;;;;;4.03;2.30;;;;;;;13.91;69.45;96552.41;6285914;22;20047;-76
2023/09/20 05:32:40;;;;;;;4.82;3.15;;;;;;;13.91;69.24;96545.34;6298216;22;20019;-78
2023/09/20 05:35:10;;;;;;;3.35;2.20;;;;;;;13.89;69.16;96549.97;6294900;22;20111;-76
2023/09/20 05:37:39;;;;;;;7.50;2.60;;;;;;;13.86;69.34;96547.75;6277256;22;20022;-78
2023/09/20 05:40:13;;;;;;;6.57;3.05;;;;;;;13.90;69.28;96548.94;6276778;22;20485;-77
2023/09/20 05:42:41;;;;;;;4.22;2.08;;;;;;;13.90;69.26;96559.44;6276765;22;20019;-77
2023/09/20 05:45:09;;;;;;;5.68;2.53;;;;;;;13.89;69.44;96549.97;6276556;22;20027;-78
2023/09/20 05:47:37;;;;;;;3.22;2.40;;;;;;;13.85;69.69;96546.16;6276414;22;20069;-76
2023/09/20 05:50:06;;;;;;;3.88;2.25;;;;;;;13.87;69.66;96549.38;6276174;22;20110;-77
2023/09/20 05:59:12;;;;;;;3.97;2.03;;;;;;;14.02;69.16;96554.41;6181207;22;20058;-79
2023/09/20 06:01:40;;;;;;;8.07;2.47;;;;;;;14.05;69.28;96553.19;6272563;22;20020;-76
2023/09/20 06:04:09;;;;;;;3.53;1.80;;;;;;;14.07;69.34;96551.16;6274427;22;20026;-76
2023/09/20 06:06:37;;;;;;;2.63;1.40;;;;;;;14.08;69.43;96555.38;6275821;22;20102;-77
2023/09/20 06:09:05;;;;;;;2.03;1.30;;;;;;;14.12;69.66;96552.13;6276011;22;20027;-77
2023/09/20 06:11:33;;;;;;;2.53;1.58;;;;;;;14.16;69.46;96555.97;6275828;22;20058;-77
2023/09/20 06:14:00;;;;;;;5.80;1.80;;;;;;;14.16;69.32;96553.34;6275703;22;20020;-76
2023/09/20 06:16:30;;;;;;;4.30;1.45;;;;;;;14.20;69.49;96561.63;6275781;22;20019;-77
2023/09/20 06:18:57;;;;;;;7.15;2.00;;;;;;;14.22;69.23;96556.97;6275878;22;20020;-77
2023/09/20 06:21:33;;;;;;;4.57;1.63;;;;;;;14.27;69.44;96565.03;6275230;22;20051;-77
2023/09/20 06:24:01;;;;;;;2.85;1.52;;;;;;;14.32;69.16;96561.78;6274899;22;20016;-77
2023/09/20 06:26:29;;;;;;;4.80;2.03;;;;;;;14.38;69.03;96555.72;6274260;22;20078;-76
2023/09/20 06:28:56;;;;;;;4.13;2.10;;;;;;;14.45;68.97;96560.94;6274673;22;20058;-76
2023/09/20 06:31:24;;;;;;;3.70;2.55;;;;;;;14.49;68.68;96562.16;6274872;22;20023;-77
2023/09/20 06:33:53;;;;;;;4.60;3.33;;;;;;;14.54;68.75;96560.53;6275232;22;20538;-77
2023/09/20 06:36:22;;;;;;;5.40;4.40;;;;;;;14.63;68.69;96550.63;6275130;22;20024;-77
2023/09/20 06:38:49;;;;;;;5.70;4.30;;;;;;;14.74;68.28;96557.84;6276224;22;20054;-78
2023/09/20 06:41:18;;;;;;;6.22;5.05;;;;;;;14.86;68.11;96559.81;6277712;22;20111;-77
2023/09/20 06:43:45;;;;;;;5.30;4.57;;;;;;;14.99;67.81;96552.66;6277045;22;20054;-76
2023/09/20 06:46:13;;;;;;;8.73;5.18;;;;;;;15.17;67.56;96548.50;6277295;22;20027;-77
2023/09/20 06:48:41;;;;;;;7.15;5.63;;;;;;;15.37;67.12;96543.13;6276870;22;20027;-76
2023/09/20 06:51:10;;;;;;;6.43;5.47;;;;;;;15.59;66.82;96540.94;6277946;22;20075;-76
2023/09/20 06:53:38;;;;;;;6.00;5.40;;;;;;;15.79;66.01;96532.94;6276945;22;20039;-77
2023/09/20 06:56:06;;;;;;;6.32;4.57;;;;;;;15.99;65.47;96530.91;6277454;22;20477;-77
2023/09/20 06:58:34;;;;;;;6.38;5.15;;;;;;;16.21;65.21;96538.38;6277277;22;20038;-76
2023/09/20 07:01:03;;;;;;;5.10;4.45;;;;;;;16.43;64.46;96536.91;6276843;22;20338;-76
2023/09/20 07:03:32;;;;;;;7.70;4.82;;;;;;;16.67;63.87;96537.84;6277209;22;20357;-77
2023/09/20 07:06:00;;;;;;;5.15;4.55;;;;;;;16.88;63.16;96543.72;6277784;22;20077;-77
2023/09/20 07:08:34;;;;;;;6.40;4.20;;;;;;;17.08;62.18;96538.97;6277186;22;20034;-77
2023/09/20 07:11:04;;;;;;;7.25;3.30;;;;;;;17.34;61.78;96536.16;6283793;22;20050;-77
2023/09/20 07:13:33;;;;;;;3.08;2.63;;;;;;;17.59;61.31;96541.25;6300647;22;20027;-78
2023/09/20 07:16:04;;;;;;;5.13;2.88;;;;;;;17.84;60.84;96530.50;6298383;22;20122;-78
2023/09/20 07:18:33;;;;;;;;;;;;;;;18.07;60.77;96530.50;6281868;22;20449;-77
2023/09/20 07:21:02;;;;;;;5.68;2.50;;;;;;;18.26;59.48;96527.75;6276924;22;19915;-77
2023/09/20 07:23:31;;;;;;;3.25;2.17;;;;;;;18.44;59.18;96529.44;6277786;22;20404;-77
2023/09/20 07:25:59;;;;;;;2.90;2.25;;;;;;;18.65;58.36;96520.88;6277432;22;20331;-77
2023/09/20 07:28:27;;;;;;;1.90;1.63;;;;;;;18.87;57.97;96531.63;6277549;22;20027;-77
2023/09/20 07:30:55;;;;;;;4.18;1.92;;;;;;;19.10;57.70;96522.00;6276840;22;20469;-77
2023/09/20 07:33:24;;;;;;;1.98;1.63;;;;;;;19.35;57.31;96533.00;6276620;22;20047;-77
2023/09/20 07:35:58;;;;;;;3.03;1.95;;;;;;;19.58;55.29;96523.31;6277301;22;20024;-77
2023/09/20 07:38:28;;;;;;;2.20;1.50;;;;;;;19.78;55.30;96516.75;6277664;22;20026;-77
2023/09/20 07:41:12;;;;;;;2.97;1.35;;;;;;;20.00;55.54;96514.97;6277611;22;20055;-77
2023/09/20 07:43:41;;;;;;;1.80;1.52;;;;;;;20.25;53.86;96517.16;6250037;22;20020;-77
2023/09/20 07:46:10;;;;;;;2.72;1.30;;;;;;;20.46;53.65;96515.56;6277120;22;20023;-77
2023/09/20 07:48:44;;;;;;;1.83;1.23;;;;;;;20.67;52.75;96518.50;6277142;22;20027;-78
2023/09/20 07:51:13;;;;;;;2.88;1.67;;;;;;;20.86;52.54;96521.59;6277372;22;20027;-75
2023/09/20 07:53:44;;;;;;;4.65;2.05;;;;;;;21.06;51.80;96515.72;6277087;22;20016;-78
2023/09/20 07:56:13;;;;;;;4.22;2.05;;;;;;;21.34;52.44;96523.41;6276557;22;20488;-78
2023/09/20 07:58:42;;;;;;;1.60;1.30;;;;;;;21.62;50.79;96513.56;6277147;22;20468;-75
2023/09/20 08:01:18;;;;;;;1.77;1.48;;;;;;;21.88;50.21;96527.03;6276711;22;20015;-79
2023/09/20 08:03:52;;;;;;;1.70;1.50;;;;;;;22.12;49.35;96520.25;6277756;22;20015;-77
2023/09/20 08:06:24;;;;;;;3.25;2.38;;;;;;;22.35;48.62;96510.31;6277848;22;20099;-75
2023/09/20 08:08:52;;;;;;;3.55;2.85;;;;;;;22.54;48.11;96508.00;6276739;22;20019;-75
2023/09/20 08:11:21;;;;;;;5.65;2.85;;;;;;;22.74;48.27;96517.88;6295714;22;20024;-76
2023/09/20 08:13:51;;;;;;;4.90;3.85;;;;;;;22.98;47.65;96513.72;6295864;22;20020;-77
2023/09/20 08:16:19;;;;;;;5.55;4.22;;;;;;;23.24;47.03;96513.78;6276579;22;20106;-75
2023/09/20 08:19:04;;;;;;;5.95;4.03;;;;;;;23.62;46.70;96509.81;6275825;22;20015;-76
2023/09/20 08:21:33;;;;;;;5.82;5.22;;;;;;;24.63;44.54;96499.19;6276922;22;20500;-76
2023/09/20 09:00:21;;;;;;;0.80;0.80;;;;;;;31.20;30.06;96488.47;6275330;22;20031;-78
2023/09/20 09:02:52;;;;;;;1.00;0.80;;;;;;;30.75;30.72;96473.38;6275074;22;20338;-79
2023/09/20 09:05:21;;;;;;;3.60;0.85;;;;;;;30.29;31.39;96480.09;6275732;22;20015;-78
2023/09/20 09:07:49;;;;;;;0.73;0.73;;;;;;;30.66;30.76;96486.06;6274696;22;20074;-78
2023/09/20 09:10:18;;;;;;;1.90;0.57;;;;;;;30.84;30.42;96486.06;6274824;22;20085;-78
2023/09/20 09:12:46;;;;;;;1.13;0.50;;;;;;;30.52;31.20;96480.78;6275720;22;20019;-77
2023/09/20 09:15:16;;;;;;;0.65;0.60;;;;;;;30.42;31.09;96486.47;6274323;22;20016;-78
2023/09/20 09:17:46;;;;;;;1.30;0.57;;;;;;;30.89;30.29;96489.41;6274994;22;20023;-78
2023/09/20 09:20:15;;;;;;;1.30;0.70;;;;;;;32.13;28.58;96486.25;6275447;22;20024;-79
2023/09/20 09:22:44;;;;;;;0.57;0.57;;;;;;;33.86;26.55;96484.19;6276417;22;20042;-78
2023/09/20 09:25:14;;;;;;;0.88;0.70;;;;;;;35.24;24.67;96490.78;6279752;22;20024;-78
2023/09/20 09:27:43;;;;;;;0.80;0.80;;;;;;;36.63;22.59;96487.38;6275299;22;20055;-77
2023/09/20 09:30:12;;;;;;;2.03;0.52;;;;;;;37.62;21.78;96492.50;6278882;22;20023;-82
2023/09/20 09:32:43;;;;;;;2.67;0.80;;;;;;;38.27;20.12;96488.19;6285549;22;20079;-81
2023/09/20 09:35:15;;;;;;;0.40;0.40;;;;;;;39.07;20.37;96482.72;6286730;22;20071;-82
2023/09/20 09:37:48;;;;;;;1.70;0.85;;;;;;;39.78;20.01;96473.75;6284824;22;20036;-82
2023/09/20 09:40:16;;;;;;;2.33;0.60;;;;;;;40.48;19.24;96478.28;6285352;22;20027;-83
2023/09/20 09:42:44;;;;;;;2.08;0.63;;;;;;;40.84;18.88;96483.97;6286389;22;20533;-82
2023/09/20 09:45:12;;;;;;;1.58;0.90;;;;;;;41.32;18.54;96475.59;6285524;22;20091;-82
2023/09/20 09:47:41;;;;;;;1.15;0.77;;;;;;;41.59;17.95;96472.53;6283394;22;20510;-82
2023/09/20 09:50:11;;;;;;;2.15;0.65;;;;;;;41.71;17.77;96469.44;6283348;22;20419;-83
2023/09/20 09:52:43;;;;;;;1.63;0.88;;;;;;;42.21;16.82;96470.66;6282528;22;20024;-82
2023/09/20 09:55:11;;;;;;;0.85;0.55;;;;;;;42.97;17.04;96467.41;6283114;22;20023;-83
2023/09/20 09:57:39;;;;;;;1.15;0.90;;;;;;;43.87;16.33;96468.91;6283258;22;20020;-82
2023/09/20 10:00:10;;;;;;;0.57;0.50;;;;;;;44.57;15.39;96461.22;6283353;22;20023;-82
2023/09/20 10:02:46;;;;;;;1.30;0.75;;;;;;;45.20;14.77;96469.16;6280973;22;20027;-82
2023/09/20 10:05:14;;;;;;;2.13;0.80;;;;;;;45.49;14.76;96446.75;6282065;22;20025;-83
2023/09/20 10:07:45;;;;;;;1.20;1.05;;;;;;;45.52;14.44;96456.94;6283441;22;20027;-83
2023/09/20 10:10:13;;;;;;;2.55;0.88;;;;;;;45.75;14.54;96450.72;6282401;22;20019;-82
2023/09/20 10:12:44;;;;;;;8.32;1.20;;;;;;;46.03;14.07;96443.19;6282255;22;20112;-83
2023/09/20 10:15:15;;;;;;;1.63;0.65;;;;;;;46.27;13.87;96435.66;6281330;22;20042;-82
2023/09/20 10:17:52;;;;;;;1.30;0.98;;;;;;;46.61;14.09;96435.47;6282094;22;20026;-84
2023/09/20 10:20:20;;;;;;;1.15;0.90;;;;;;;46.91;13.55;96430.97;6284195;22;20065;-83
2023/09/20 10:22:48;;;;;;;0.90;0.90;;;;;;;47.08;13.59;96422.72;6280917;22;20024;-83
2023/09/20 10:25:34;;;;;;;0.85;0.60;;;;;;;47.16;13.33;96413.88;6281647;22;20020;-83
2023/09/20 10:28:03;;;;;;;2.58;0.80;;;;;;;47.55;13.03;96419.75;6281493;22;20104;-84
2023/09/20 10:30:34;;;;;;;1.58;0.70;;;;;;;47.49;12.73;96418.66;6282474;22;20085;-86
2023/09/20 10:33:04;;;;;;;0.68;0.68;;;;;;;47.43;12.93;96412.88;6281299;22;20461;-83
2023/09/20 10:35:33;;;;;;;1.73;1.00;;;;;;;47.37;13.02;96404.34;6281621;22;20526;-83
2023/09/20 10:38:22;;;;;;;3.63;1.00;;;;;;;46.95;13.79;96404.06;6279862;22;20402;-80
2023/09/20 10:41:05;;;;;;;1.63;1.00;;;;;;;45.10;13.92;96401.25;6280200;22;20514;-82
2023/09/20 10:43:57;;;;;;;0.95;0.93;;;;;;;42.91;16.74;96392.16;6279402;22;20031;-81
2023/09/20 10:46:24;;;;;;;3.00;0.90;;;;;;;41.83;16.90;96385.31;6249754;22;20019;-80
2023/09/20 10:48:53;;;;;;;3.28;0.93;;;;;;;40.67;17.73;96383.47;6278438;22;20042;-80
2023/09/20 10:51:39;;;;;;;1.35;1.05;;;;;;;39.32;19.57;96371.94;6278914;22;20045;-82
2023/09/20 10:54:18;;;;;;;1.10;0.73;;;;;;;38.64;20.46;96373.09;6278368;22;20016;-84
2023/09/20 10:57:02;;;;;;;0.85;0.70;;;;;;;37.86;20.82;96365.38;6278963;22;20030;-81
2023/09/20 10:59:32;;;;;;;1.75;1.00;;;;;;;37.37;21.50;96363.38;6278485;22;20457;-82
2023/09/20 11:02:08;;;;;;;2.53;1.10;;;;;;;37.18;22.07;96365.00;6276585;22;20492;-79
2023/09/20 11:04:41;;;;;;;4.15;1.23;;;;;;;37.22;21.59;96363.13;6276109;22;20022;-80
2023/09/20 11:07:09;;;;;;;2.92;1.02;;;;;;;37.64;21.51;96348.72;6277588;22;20085;-79
2023/09/20 11:09:39;;;;;;;2.38;0.80;;;;;;;38.36;20.77;96349.78;6283452;22;20016;-78
2023/09/20 11:12:08;;;;;;;1.90;1.17;;;;;;;39.00;19.75;96357.97;6281558;22;20024;-78
2023/09/20 11:14:37;;;;;;;2.80;0.80;;;;;;;39.39;19.52;96354.09;6277382;22;20020;-80
2023/09/20 11:17:09;;;;;;;2.30;0.90;;;;;;;39.68;19.05;96342.25;6279105;22;20327;-79
2023/09/20 11:19:39;;;;;;;2.63;0.90;;;;;;;39.88;19.31;96336.56;6281608;22;20027;-80
2023/09/20 11:22:08;;;;;;;1.08;0.60;;;;;;;39.97;19.13;96328.81;6283183;22;20031;-80
2023/09/20 11:24:37;;;;;;;1.23;0.90;;;;;;;40.08;19.26;96332.41;6279093;22;20027;-80
2023/09/20 11:27:05;;;;;;;2.58;0.90;;;;;;;40.30;18.95;96324.34;6276657;22;20024;-81
2023/09/20 11:29:36;;;;;;;1.67;0.95;;;;;;;40.30;18.61;96325.13;6268285;22;20477;-80
2023/09/20 11:32:10;;;;;;;1.63;1.00;;;;;;;40.27;18.25;96319.63;6269322;22;20028;-81
2023/09/20 11:34:43;;;;;;;1.73;0.90;;;;;;;40.24;18.88;96307.50;6270514;22;20015;-80
2023/09/20 11:37:15;;;;;;;1.33;0.98;;;;;;;40.31;18.54;96309.50;6287010;22;20023;-82
2023/09/20 11:39:45;;;;;;;0.77;0.68;;;;;;;40.28;18.96;96315.72;6290469;22;20104;-80
2023/09/20 11:42:23;;;;;;;3.45;1.15;;;;;;;40.23;19.17;96307.88;6285293;22;20019;-81
2023/09/20 11:44:56;;;;;;;2.13;0.95;;;;;;;40.06;19.00;96307.41;6275070;22;20085;-80
2023/09/20 11:47:41;;;;;;;1.95;0.65;;;;;;;39.59;19.30;96303.56;6279122;22;20094;-80
2023/09/20 11:50:13;;;;;;;3.15;0.93;;;;;;;38.59;19.83;96299.84;6279507;22;20381;-80
2023/09/20 11:52:45;;;;;;;4.07;0.77;;;;;;;37.57;20.50;96305.06;6278754;22;20026;-81
2023/09/20 11:55:15;;;;;;;2.42;1.00;;;;;;;36.99;22.17;96299.75;6279242;22;20015;-80
2023/09/20 11:57:45;;;;;;;2.10;0.90;;;;;;;36.68;22.34;96287.94;6278403;22;20026;-79
2023/09/20 12:00:16;;;;;;;1.20;0.65;;;;;;;36.18;22.53;96287.69;6279394;22;20019;-81
2023/09/20 12:02:44;;;;;;;1.73;0.57;;;;;;;35.65;22.99;96285.34;6280890;22;20024;-81
2023/09/20 12:05:12;;;;;;;4.32;0.85;;;;;;;35.14;23.48;96274.44;6279640;22;20023;-81
2023/09/20 12:07:40;;;;;;;2.10;0.90;;;;;;;34.50;24.56;96283.50;6280788;22;20047;-81
2023/09/20 12:10:10;;;;;;;1.42;0.90;;;;;;;33.67;24.98;96275.66;6279830;22;20016;-81
2023/09/20 12:12:38;;;;;;;0.98;0.80;;;;;;;32.95;26.60;96269.81;6278803;22;20047;-79
2023/09/20 12:15:07;;;;;;;1.60;0.70;;;;;;;32.41;27.33;96265.25;6276804;22;20446;-79
2023/09/20 12:17:35;;;;;;;0.70;0.70;;;;;;;32.02;27.63;96264.59;6276927;22;20019;-79
2023/09/20 12:20:04;;;;;;;1.33;0.57;;;;;;;31.71;28.61;96262.25;6276134;22;20090;-78
2023/09/20 12:22:32;;;;;;;1.05;0.68;;;;;;;31.46;29.15;96255.88;6276358;22;20396;-79
2023/09/20 12:25:00;;;;;;;1.67;0.50;;;;;;;31.27;28.86;96256.25;6275916;22;20019;-79
2023/09/20 12:27:29;;;;;;;2.80;0.70;;;;;;;31.11;29.36;96251.41;6276786;22;20065;-79
2023/09/20 12:29:57;;;;;;;4.78;1.27;;;;;;;30.96;29.46;96257.31;6277549;22;20505;-81